sensor_id;sensor_type;location;lat;lon;timestamp;temperature;humidity
6206;DHT22;3136;48.788;9.772;2023-07-09T00:01:17;17.80;68.90
6206;DHT22;3136;48.788;9.772;2023-07-09T00:03:44;18.60;70.90
6206;DHT22;3136;48.788;9.772;2023-07-09T00:06:12;17.70;71.60
6206;DHT22;3136;48.788;9.772;2023-07-09T00:08:42;17.70;74.40
6206;DHT22;3136;48.788;9.772;2023-07-09T00:11:09;17.70;76.00
6206;DHT22;3136;48.788;9.772;2023-07-09T00:13:35;17.60;76.40
6206;DHT22;3136;48.788;9.772;2023-07-09T00:16:01;17.60;76.70
6206;DHT22;3136;48.788;9.772;2023-07-09T00:18:30;17.50;78.00
6206;DHT22;3136;48.788;9.772;2023-07-09T00:20:55;17.80;77.30
6206;DHT22;3136;48.788;9.772;2023-07-09T00:23:21;18.00;80.10
6206;DHT22;3136;48.788;9.772;2023-07-09T00:25:47;17.40;79.80
6206;DHT22;3136;48.788;9.772;2023-07-09T00:28:14;18.00;82.90
6206;DHT22;3136;48.788;9.772;2023-07-09T00:30:40;17.40;83.60
6206;DHT22;3136;48.788;9.772;2023-07-09T00:33:12;17.30;85.20
6206;DHT22;3136;48.788;9.772;2023-07-09T00:35:44;17.30;85.80
6206;DHT22;3136;48.788;9.772;2023-07-09T00:38:19;17.40;88.70
6206;DHT22;3136;48.788;9.772;2023-07-09T00:43:24;17.40;90.00
6206;DHT22;3136;48.788;9.772;2023-07-09T00:48:50;17.10;90.10
6206;DHT22;3136;48.788;9.772;2023-07-09T00:51:19;17.10;91.50
6206;DHT22;3136;48.788;9.772;2023-07-09T00:53:51;17.10;92.40
6206;DHT22;3136;48.788;9.772;2023-07-09T00:56:25;17.60;94.30
6206;DHT22;3136;48.788;9.772;2023-07-09T00:58:52;17.60;94.60
6206;DHT22;3136;48.788;9.772;2023-07-09T01:01:20;17.10;99.90
6206;DHT22;3136;48.788;9.772;2023-07-09T01:03:53;18.50;96.00
6206;DHT22;3136;48.788;9.772;2023-07-09T01:06:34;17.50;96.00
6206;DHT22;3136;48.788;9.772;2023-07-09T01:09:02;16.90;96.20
6206;DHT22;3136;48.788;9.772;2023-07-09T01:11:28;17.00;97.10
6206;DHT22;3136;48.788;9.772;2023-07-09T01:14:03;17.70;98.10
6206;DHT22;3136;48.788;9.772;2023-07-09T01:16:34;16.80;98.20
6206;DHT22;3136;48.788;9.772;2023-07-09T01:19:01;17.60;99.00
6206;DHT22;3136;48.788;9.772;2023-07-09T01:21:27;17.40;99.30
6206;DHT22;3136;48.788;9.772;2023-07-09T01:23:53;17.30;99.60
6206;DHT22;3136;48.788;9.772;2023-07-09T01:26:23;17.40;99.90
6206;DHT22;3136;48.788;9.772;2023-07-09T01:28:53;18.00;99.90
6206;DHT22;3136;48.788;9.772;2023-07-09T01:31:19;17.50;99.90
6206;DHT22;3136;48.788;9.772;2023-07-09T01:33:46;18.10;99.90
6206;DHT22;3136;48.788;9.772;2023-07-09T01:36:19;16.60;99.90
6206;DHT22;3136;48.788;9.772;2023-07-09T01:38:48;16.60;99.90
6206;DHT22;3136;48.788;9.772;2023-07-09T01:41:14;17.20;99.90
6206;DHT22;3136;48.788;9.772;2023-07-09T01:43:41;17.00;99.90
6206;DHT22;3136;48.788;9.772;2023-07-09T01:46:08;16.50;99.90
6206;DHT22;3136;48.788;9.772;2023-07-09T01:48:34;16.50;99.90
6206;DHT22;3136;48.788;9.772;2023-07-09T01:51:06;17.00;99.90
6206;DHT22;3136;48.788;9.772;2023-07-09T01:53:33;17.30;99.90
6206;DHT22;3136;48.788;9.772;2023-07-09T01:55:59;16.50;99.90
6206;DHT22;3136;48.788;9.772;2023-07-09T01:58:24;16.90;99.90
6206;DHT22;3136;48.788;9.772;2023-07-09T02:00:50;16.30;99.90
6206;DHT22;3136;48.788;9.772;2023-07-09T02:03:16;16.30;99.90
6206;DHT22;3136;48.788;9.772;2023-07-09T02:05:43;16.30;99.90
6206;DHT22;3136;48.788;9.772;2023-07-09T02:08:08;16.80;99.90
6206;DHT22;3136;48.788;9.772;2023-07-09T02:10:34;16.20;99.90
6206;DHT22;3136;48.788;9.772;2023-07-09T02:13:00;16.30;99.90
6206;DHT22;3136;48.788;9.772;2023-07-09T02:15:25;16.50;99.90
6206;DHT22;3136;48.788;9.772;2023-07-09T02:17:51;16.20;99.90
6206;DHT22;3136;48.788;9.772;2023-07-09T02:20:17;16.90;99.90
6206;DHT22;3136;48.788;9.772;2023-07-09T02:22:45;16.10;99.90
6206;DHT22;3136;48.788;9.772;2023-07-09T02:25:11;16.10;99.90
6206;DHT22;3136;48.788;9.772;2023-07-09T02:27:37;16.00;99.90
6206;DHT22;3136;48.788;9.772;2023-07-09T02:30:05;16.00;99.90
6206;DHT22;3136;48.788;9.772;2023-07-09T02:32:31;16.00;99.90
6206;DHT22;3136;48.788;9.772;2023-07-09T02:34:57;16.00;99.90
6206;DHT22;3136;48.788;9.772;2023-07-09T02:37:24;17.00;99.90
6206;DHT22;3136;48.788;9.772;2023-07-09T02:39:50;16.00;99.90
6206;DHT22;3136;48.788;9.772;2023-07-09T02:42:18;16.00;99.90
6206;DHT22;3136;48.788;9.772;2023-07-09T02:44:45;15.90;99.90
6206;DHT22;3136;48.788;9.772;2023-07-09T02:47:11;15.90;99.90
6206;DHT22;3136;48.788;9.772;2023-07-09T02:49:37;15.90;99.90
6206;DHT22;3136;48.788;9.772;2023-07-09T02:52:03;15.90;99.90
6206;DHT22;3136;48.788;9.772;2023-07-09T02:54:29;15.80;99.90
6206;DHT22;3136;48.788;9.772;2023-07-09T02:56:55;15.80;99.90
6206;DHT22;3136;48.788;9.772;2023-07-09T02:59:20;15.70;99.90
6206;DHT22;3136;48.788;9.772;2023-07-09T03:01:46;16.40;99.90
6206;DHT22;3136;48.788;9.772;2023-07-09T03:04:13;15.70;99.90
6206;DHT22;3136;48.788;9.772;2023-07-09T03:06:39;15.70;99.90
6206;DHT22;3136;48.788;9.772;2023-07-09T03:09:06;15.60;99.90
6206;DHT22;3136;48.788;9.772;2023-07-09T03:11:33;17.00;99.90
6206;DHT22;3136;48.788;9.772;2023-07-09T03:14:00;16.60;99.90
6206;DHT22;3136;48.788;9.772;2023-07-09T03:16:27;15.60;99.90
6206;DHT22;3136;48.788;9.772;2023-07-09T03:18:53;15.50;99.90
6206;DHT22;3136;48.788;9.772;2023-07-09T03:21:20;15.50;99.90
6206;DHT22;3136;48.788;9.772;2023-07-09T03:23:45;15.60;99.90
6206;DHT22;3136;48.788;9.772;2023-07-09T03:26:11;16.30;99.90
6206;DHT22;3136;48.788;9.772;2023-07-09T03:28:37;15.50;99.90
6206;DHT22;3136;48.788;9.772;2023-07-09T03:31:03;15.50;99.90
6206;DHT22;3136;48.788;9.772;2023-07-09T03:33:28;15.50;99.90
6206;DHT22;3136;48.788;9.772;2023-07-09T03:35:54;15.50;99.90
6206;DHT22;3136;48.788;9.772;2023-07-09T03:38:20;16.40;99.90
6206;DHT22;3136;48.788;9.772;2023-07-09T03:40:53;15.40;99.90
6206;DHT22;3136;48.788;9.772;2023-07-09T03:43:19;15.40;99.90
6206;DHT22;3136;48.788;9.772;2023-07-09T03:45:46;15.40;99.90
6206;DHT22;3136;48.788;9.772;2023-07-09T03:48:11;15.40;99.90
6206;DHT22;3136;48.788;9.772;2023-07-09T03:50:37;15.30;99.90
6206;DHT22;3136;48.788;9.772;2023-07-09T03:53:03;15.30;99.90
6206;DHT22;3136;48.788;9.772;2023-07-09T03:55:29;15.40;99.90
6206;DHT22;3136;48.788;9.772;2023-07-09T03:57:55;15.40;99.90
6206;DHT22;3136;48.788;9.772;2023-07-09T04:00:21;15.40;99.90
6206;DHT22;3136;48.788;9.772;2023-07-09T04:02:47;15.40;99.90
6206;DHT22;3136;48.788;9.772;2023-07-09T04:05:12;15.40;99.90
6206;DHT22;3136;48.788;9.772;2023-07-09T04:07:38;15.40;99.90
6206;DHT22;3136;48.788;9.772;2023-07-09T04:10:05;15.40;99.90
6206;DHT22;3136;48.788;9.772;2023-07-09T04:12:31;15.40;99.90
6206;DHT22;3136;48.788;9.772;2023-07-09T04:14:57;15.40;99.90
6206;DHT22;3136;48.788;9.772;2023-07-09T04:17:23;15.50;99.90
6206;DHT22;3136;48.788;9.772;2023-07-09T04:19:49;15.50;99.90
6206;DHT22;3136;48.788;9.772;2023-07-09T04:22:15;15.50;99.90
6206;DHT22;3136;48.788;9.772;2023-07-09T04:24:40;15.50;99.90
6206;DHT22;3136;48.788;9.772;2023-07-09T04:27:06;15.90;99.90
6206;DHT22;3136;48.788;9.772;2023-07-09T04:29:32;15.70;99.90
6206;DHT22;3136;48.788;9.772;2023-07-09T04:32:21;15.70;99.90
6206;DHT22;3136;48.788;9.772;2023-07-09T04:34:47;15.80;99.90
6206;DHT22;3136;48.788;9.772;2023-07-09T04:37:13;15.80;99.90
6206;DHT22;3136;48.788;9.772;2023-07-09T04:39:42;15.90;99.90
6206;DHT22;3136;48.788;9.772;2023-07-09T04:42:11;16.00;99.90
6206;DHT22;3136;48.788;9.772;2023-07-09T04:44:37;16.10;99.90
6206;DHT22;3136;48.788;9.772;2023-07-09T04:47:02;16.10;99.90
6206;DHT22;3136;48.788;9.772;2023-07-09T04:49:28;16.20;99.90
6206;DHT22;3136;48.788;9.772;2023-07-09T04:51:53;16.20;99.90
6206;DHT22;3136;48.788;9.772;2023-07-09T04:54:22;16.30;99.90
6206;DHT22;3136;48.788;9.772;2023-07-09T04:56:48;16.30;99.90
6206;DHT22;3136;48.788;9.772;2023-07-09T04:59:14;16.40;99.90
6206;DHT22;3136;48.788;9.772;2023-07-09T05:01:39;16.40;99.90
6206;DHT22;3136;48.788;9.772;2023-07-09T05:04:05;16.50;99.90
6206;DHT22;3136;48.788;9.772;2023-07-09T05:06:32;16.50;99.90
6206;DHT22;3136;48.788;9.772;2023-07-09T05:08:58;16.70;99.90
6206;DHT22;3136;48.788;9.772;2023-07-09T05:11:24;16.70;99.90
6206;DHT22;3136;48.788;9.772;2023-07-09T05:13:49;16.80;99.90
6206;DHT22;3136;48.788;9.772;2023-07-09T05:16:15;17.00;99.90
6206;DHT22;3136;48.788;9.772;2023-07-09T05:18:40;17.10;99.90
6206;DHT22;3136;48.788;9.772;2023-07-09T05:21:06;17.10;99.90
6206;DHT22;3136;48.788;9.772;2023-07-09T05:23:32;17.60;99.90
6206;DHT22;3136;48.788;9.772;2023-07-09T05:26:01;17.40;99.90
6206;DHT22;3136;48.788;9.772;2023-07-09T05:28:28;17.50;99.90
6206;DHT22;3136;48.788;9.772;2023-07-09T05:30:54;17.70;99.90
6206;DHT22;3136;48.788;9.772;2023-07-09T05:33:20;17.90;99.90
6206;DHT22;3136;48.788;9.772;2023-07-09T05:35:47;17.90;99.90
6206;DHT22;3136;48.788;9.772;2023-07-09T05:38:13;18.00;99.90
6206;DHT22;3136;48.788;9.772;2023-07-09T05:40:39;18.10;99.90
6206;DHT22;3136;48.788;9.772;2023-07-09T05:43:05;18.30;99.90
6206;DHT22;3136;48.788;9.772;2023-07-09T05:45:31;18.50;99.90
6206;DHT22;3136;48.788;9.772;2023-07-09T05:48:00;18.50;99.90
6206;DHT22;3136;48.788;9.772;2023-07-09T05:50:28;18.60;99.90
6206;DHT22;3136;48.788;9.772;2023-07-09T05:52:54;18.60;99.90
6206;DHT22;3136;48.788;9.772;2023-07-09T05:55:19;18.90;99.90
6206;DHT22;3136;48.788;9.772;2023-07-09T05:57:46;18.90;99.90
6206;DHT22;3136;48.788;9.772;2023-07-09T06:00:12;19.00;99.90
6206;DHT22;3136;48.788;9.772;2023-07-09T06:02:38;19.10;99.90
6206;DHT22;3136;48.788;9.772;2023-07-09T06:05:04;19.50;99.90
6206;DHT22;3136;48.788;9.772;2023-07-09T06:07:30;19.30;99.90
6206;DHT22;3136;48.788;9.772;2023-07-09T06:09:55;19.60;99.90
6206;DHT22;3136;48.788;9.772;2023-07-09T06:12:22;19.60;99.90
6206;DHT22;3136;48.788;9.772;2023-07-09T06:14:48;19.70;98.60
6206;DHT22;3136;48.788;9.772;2023-07-09T06:17:14;19.80;97.90
6206;DHT22;3136;48.788;9.772;2023-07-09T06:19:39;20.20;97.00
6206;DHT22;3136;48.788;9.772;2023-07-09T06:22:05;20.10;95.90
6206;DHT22;3136;48.788;9.772;2023-07-09T06:24:31;20.20;95.90
6206;DHT22;3136;48.788;9.772;2023-07-09T06:26:57;20.50;94.50
6206;DHT22;3136;48.788;9.772;2023-07-09T06:29:22;20.50;92.60
6206;DHT22;3136;48.788;9.772;2023-07-09T06:31:48;20.60;91.90
6206;DHT22;3136;48.788;9.772;2023-07-09T06:34:14;20.60;90.40
6206;DHT22;3136;48.788;9.772;2023-07-09T06:36:39;20.80;90.50
6206;DHT22;3136;48.788;9.772;2023-07-09T06:39:05;21.10;86.70
6206;DHT22;3136;48.788;9.772;2023-07-09T06:41:31;21.10;84.40
6206;DHT22;3136;48.788;9.772;2023-07-09T06:43:58;21.30;82.50
6206;DHT22;3136;48.788;9.772;2023-07-09T06:46:23;21.50;82.30
6206;DHT22;3136;48.788;9.772;2023-07-09T06:48:49;21.60;77.60
6206;DHT22;3136;48.788;9.772;2023-07-09T06:51:15;21.70;76.70
6206;DHT22;3136;48.788;9.772;2023-07-09T06:53:41;21.90;76.30
6206;DHT22;3136;48.788;9.772;2023-07-09T06:56:08;22.00;73.40
6206;DHT22;3136;48.788;9.772;2023-07-09T06:58:36;22.10;73.60
6206;DHT22;3136;48.788;9.772;2023-07-09T07:01:03;22.30;70.40
6206;DHT22;3136;48.788;9.772;2023-07-09T07:03:29;22.40;70.20
6206;DHT22;3136;48.788;9.772;2023-07-09T07:05:55;22.50;66.30
6206;DHT22;3136;48.788;9.772;2023-07-09T07:08:24;22.70;62.50
6206;DHT22;3136;48.788;9.772;2023-07-09T07:10:55;22.90;60.10
6206;DHT22;3136;48.788;9.772;2023-07-09T07:13:38;23.10;59.60
6206;DHT22;3136;48.788;9.772;2023-07-09T07:16:13;23.20;54.70
6206;DHT22;3136;48.788;9.772;2023-07-09T07:18:39;23.40;52.10
6206;DHT22;3136;48.788;9.772;2023-07-09T07:21:05;23.60;52.60
6206;DHT22;3136;48.788;9.772;2023-07-09T07:23:31;23.80;51.30
6206;DHT22;3136;48.788;9.772;2023-07-09T07:25:57;24.00;51.00
6206;DHT22;3136;48.788;9.772;2023-07-09T07:28:23;24.10;49.20
6206;DHT22;3136;48.788;9.772;2023-07-09T07:31:01;24.20;69.20
6206;DHT22;3136;48.788;9.772;2023-07-09T07:33:27;24.40;48.20
6206;DHT22;3136;48.788;9.772;2023-07-09T07:35:53;24.60;47.40
6206;DHT22;3136;48.788;9.772;2023-07-09T07:38:18;24.70;44.50
6206;DHT22;3136;48.788;9.772;2023-07-09T07:40:44;24.80;45.30
6206;DHT22;3136;48.788;9.772;2023-07-09T07:43:10;25.00;43.40
6206;DHT22;3136;48.788;9.772;2023-07-09T07:45:40;25.20;44.30
6206;DHT22;3136;48.788;9.772;2023-07-09T07:48:06;25.30;41.00
6206;DHT22;3136;48.788;9.772;2023-07-09T07:50:31;25.40;40.10
6206;DHT22;3136;48.788;9.772;2023-07-09T07:52:57;25.60;36.00
6206;DHT22;3136;48.788;9.772;2023-07-09T07:55:22;25.80;36.00
6206;DHT22;3136;48.788;9.772;2023-07-09T07:57:48;25.90;35.40
6206;DHT22;3136;48.788;9.772;2023-07-09T08:00:15;26.00;33.50
6206;DHT22;3136;48.788;9.772;2023-07-09T08:02:40;26.10;33.60
6206;DHT22;3136;48.788;9.772;2023-07-09T08:05:06;26.20;31.00
6206;DHT22;3136;48.788;9.772;2023-07-09T08:07:32;26.30;31.90
6206;DHT22;3136;48.788;9.772;2023-07-09T08:09:57;26.40;29.40
6206;DHT22;3136;48.788;9.772;2023-07-09T08:12:23;26.60;29.40
6206;DHT22;3136;48.788;9.772;2023-07-09T08:14:49;26.70;29.40
6206;DHT22;3136;48.788;9.772;2023-07-09T08:17:14;26.80;28.10
6206;DHT22;3136;48.788;9.772;2023-07-09T08:19:51;26.90;28.70
6206;DHT22;3136;48.788;9.772;2023-07-09T08:22:18;27.10;27.00
6206;DHT22;3136;48.788;9.772;2023-07-09T08:24:46;27.10;26.10
6206;DHT22;3136;48.788;9.772;2023-07-09T08:27:12;27.20;25.00
6206;DHT22;3136;48.788;9.772;2023-07-09T08:29:37;27.30;25.30
6206;DHT22;3136;48.788;9.772;2023-07-09T08:32:05;27.60;23.50
6206;DHT22;3136;48.788;9.772;2023-07-09T08:34:31;27.70;21.30
6206;DHT22;3136;48.788;9.772;2023-07-09T08:36:56;27.80;22.10
6206;DHT22;3136;48.788;9.772;2023-07-09T08:39:22;28.00;21.90
6206;DHT22;3136;48.788;9.772;2023-07-09T08:42:04;28.10;20.80
6206;DHT22;3136;48.788;9.772;2023-07-09T08:49:59;28.60;17.30
6206;DHT22;3136;48.788;9.772;2023-07-09T08:52:52;28.70;18.70
6206;DHT22;3136;48.788;9.772;2023-07-09T08:55:19;28.90;17.10
6206;DHT22;3136;48.788;9.772;2023-07-09T08:58:10;29.00;16.50
6206;DHT22;3136;48.788;9.772;2023-07-09T09:00:47;29.20;14.50
6206;DHT22;3136;48.788;9.772;2023-07-09T09:03:39;29.20;14.30
6206;DHT22;3136;48.788;9.772;2023-07-09T09:06:10;29.10;13.00
6206;DHT22;3136;48.788;9.772;2023-07-09T09:11:49;30.00;12.50
6206;DHT22;3136;48.788;9.772;2023-07-09T09:14:38;29.60;10.30
6206;DHT22;3136;48.788;9.772;2023-07-09T09:17:14;29.80;11.10
6206;DHT22;3136;48.788;9.772;2023-07-09T09:20:03;29.80;9.10
6206;DHT22;3136;48.788;9.772;2023-07-09T09:22:40;30.00;7.20
6206;DHT22;3136;48.788;9.772;2023-07-09T09:27:42;30.20;5.70
6206;DHT22;3136;48.788;9.772;2023-07-09T09:30:14;30.30;5.40
6206;DHT22;3136;48.788;9.772;2023-07-09T09:32:45;30.30;4.90
6206;DHT22;3136;48.788;9.772;2023-07-09T09:35:17;30.40;4.40
6206;DHT22;3136;48.788;9.772;2023-07-09T09:37:50;30.50;4.20
6206;DHT22;3136;48.788;9.772;2023-07-09T09:40:18;30.60;3.90
6206;DHT22;3136;48.788;9.772;2023-07-09T09:42:47;30.60;4.70
6206;DHT22;3136;48.788;9.772;2023-07-09T09:45:16;30.80;3.80
6206;DHT22;3136;48.788;9.772;2023-07-09T09:47:43;30.90;2.70
6206;DHT22;3136;48.788;9.772;2023-07-09T09:50:16;31.10;1.70
6206;DHT22;3136;48.788;9.772;2023-07-09T09:52:43;31.30;3.00
6206;DHT22;3136;48.788;9.772;2023-07-09T09:55:24;31.50;1.00
6206;DHT22;3136;48.788;9.772;2023-07-09T09:57:54;31.50;1.00
6206;DHT22;3136;48.788;9.772;2023-07-09T10:00:23;31.60;1.00
6206;DHT22;3136;48.788;9.772;2023-07-09T10:02:50;31.70;1.00
6206;DHT22;3136;48.788;9.772;2023-07-09T10:05:29;31.80;1.00
6206;DHT22;3136;48.788;9.772;2023-07-09T10:10:28;31.80;1.00
6206;DHT22;3136;48.788;9.772;2023-07-09T10:13:50;31.90;1.00
6206;DHT22;3136;48.788;9.772;2023-07-09T10:16:09;31.90;1.00
6206;DHT22;3136;48.788;9.772;2023-07-09T10:23:48;32.10;1.00
6206;DHT22;3136;48.788;9.772;2023-07-09T10:26:27;32.20;1.00
6206;DHT22;3136;48.788;9.772;2023-07-09T10:29:22;32.20;1.00
6206;DHT22;3136;48.788;9.772;2023-07-09T10:34:32;32.50;1.00
6206;DHT22;3136;48.788;9.772;2023-07-09T10:39:38;32.70;1.00
6206;DHT22;3136;48.788;9.772;2023-07-09T10:42:22;32.90;1.00
6206;DHT22;3136;48.788;9.772;2023-07-09T10:44:56;33.10;1.00
6206;DHT22;3136;48.788;9.772;2023-07-09T10:47:25;33.40;1.00
6206;DHT22;3136;48.788;9.772;2023-07-09T10:49:53;33.70;1.00
6206;DHT22;3136;48.788;9.772;2023-07-09T10:52:26;34.00;1.00
6206;DHT22;3136;48.788;9.772;2023-07-09T10:55:12;34.40;1.00
6206;DHT22;3136;48.788;9.772;2023-07-09T11:00:31;34.40;1.00
6206;DHT22;3136;48.788;9.772;2023-07-09T11:03:00;33.90;1.00
6206;DHT22;3136;48.788;9.772;2023-07-09T11:05:27;33.30;1.00
6206;DHT22;3136;48.788;9.772;2023-07-09T11:10:34;32.50;1.00
6206;DHT22;3136;48.788;9.772;2023-07-09T11:15:36;33.20;1.00
6206;DHT22;3136;48.788;9.772;2023-07-09T11:18:05;33.20;1.00
6206;DHT22;3136;48.788;9.772;2023-07-09T11:20:34;33.00;1.00
6206;DHT22;3136;48.788;9.772;2023-07-09T11:23:07;32.60;1.00
6206;DHT22;3136;48.788;9.772;2023-07-09T11:25:47;32.40;1.00
6206;DHT22;3136;48.788;9.772;2023-07-09T11:28:14;32.80;1.00
6206;DHT22;3136;48.788;9.772;2023-07-09T11:30:53;33.40;1.00
6206;DHT22;3136;48.788;9.772;2023-07-09T11:33:29;34.20;1.00
6206;DHT22;3136;48.788;9.772;2023-07-09T11:38:43;35.90;1.00
6206;DHT22;3136;48.788;9.772;2023-07-09T11:41:34;36.40;1.00
6206;DHT22;3136;48.788;9.772;2023-07-09T11:49:59;37.50;1.00
6206;DHT22;3136;48.788;9.772;2023-07-09T11:52:45;38.00;1.00
6206;DHT22;3136;48.788;9.772;2023-07-09T11:55:33;38.40;1.00
6206;DHT22;3136;48.788;9.772;2023-07-09T11:58:03;39.00;1.00
6206;DHT22;3136;48.788;9.772;2023-07-09T12:00:49;39.00;1.00
6206;DHT22;3136;48.788;9.772;2023-07-09T12:03:23;38.90;1.00
6206;DHT22;3136;48.788;9.772;2023-07-09T12:05:55;38.90;1.00
6206;DHT22;3136;48.788;9.772;2023-07-09T12:08:32;39.00;1.00
6206;DHT22;3136;48.788;9.772;2023-07-09T12:10:58;39.30;1.00
6206;DHT22;3136;48.788;9.772;2023-07-09T12:13:23;39.50;1.00
6206;DHT22;3136;48.788;9.772;2023-07-09T12:15:49;39.80;1.00
6206;DHT22;3136;48.788;9.772;2023-07-09T12:18:15;40.10;1.00
6206;DHT22;3136;48.788;9.772;2023-07-09T12:20:47;39.90;1.00
6206;DHT22;3136;48.788;9.772;2023-07-09T12:23:29;39.30;1.00
6206;DHT22;3136;48.788;9.772;2023-07-09T12:25:59;39.50;1.00
6206;DHT22;3136;48.788;9.772;2023-07-09T12:28:27;39.70;1.00
6206;DHT22;3136;48.788;9.772;2023-07-09T12:30:53;40.30;1.00
6206;DHT22;3136;48.788;9.772;2023-07-09T12:33:21;40.40;1.00
6206;DHT22;3136;48.788;9.772;2023-07-09T12:35:49;40.00;1.00
6206;DHT22;3136;48.788;9.772;2023-07-09T12:38:18;39.90;1.00
6206;DHT22;3136;48.788;9.772;2023-07-09T12:40:45;39.90;1.00
6206;DHT22;3136;48.788;9.772;2023-07-09T12:43:11;40.30;1.00
6206;DHT22;3136;48.788;9.772;2023-07-09T12:45:37;40.50;1.00
6206;DHT22;3136;48.788;9.772;2023-07-09T12:48:02;40.40;1.00
6206;DHT22;3136;48.788;9.772;2023-07-09T12:53:01;38.70;1.00
6206;DHT22;3136;48.788;9.772;2023-07-09T12:55:28;38.10;1.00
6206;DHT22;3136;48.788;9.772;2023-07-09T12:57:57;37.90;1.00
6206;DHT22;3136;48.788;9.772;2023-07-09T13:00:30;38.40;1.00
6206;DHT22;3136;48.788;9.772;2023-07-09T13:02:57;39.00;1.00
6206;DHT22;3136;48.788;9.772;2023-07-09T13:05:25;40.00;1.00
6206;DHT22;3136;48.788;9.772;2023-07-09T13:07:53;41.20;1.00
6206;DHT22;3136;48.788;9.772;2023-07-09T13:10:23;41.70;1.00
6206;DHT22;3136;48.788;9.772;2023-07-09T13:12:54;42.50;1.00
6206;DHT22;3136;48.788;9.772;2023-07-09T13:15:26;43.00;1.00
6206;DHT22;3136;48.788;9.772;2023-07-09T13:18:11;42.40;1.00
6206;DHT22;3136;48.788;9.772;2023-07-09T13:20:40;42.30;1.00
6206;DHT22;3136;48.788;9.772;2023-07-09T13:23:30;42.80;1.00
6206;DHT22;3136;48.788;9.772;2023-07-09T13:25:56;42.90;1.00
6206;DHT22;3136;48.788;9.772;2023-07-09T13:28:26;43.50;1.00
6206;DHT22;3136;48.788;9.772;2023-07-09T13:30:56;43.30;1.00
6206;DHT22;3136;48.788;9.772;2023-07-09T13:33:23;42.90;1.00
6206;DHT22;3136;48.788;9.772;2023-07-09T13:35:49;42.50;1.00
6206;DHT22;3136;48.788;9.772;2023-07-09T13:38:18;42.30;1.00
6206;DHT22;3136;48.788;9.772;2023-07-09T13:40:48;41.60;1.00
6206;DHT22;3136;48.788;9.772;2023-07-09T13:43:18;41.40;1.00
6206;DHT22;3136;48.788;9.772;2023-07-09T13:45:45;41.20;1.00
6206;DHT22;3136;48.788;9.772;2023-07-09T13:48:19;41.20;1.00
6206;DHT22;3136;48.788;9.772;2023-07-09T13:50:47;41.20;1.00
6206;DHT22;3136;48.788;9.772;2023-07-09T13:53:16;41.50;1.00
6206;DHT22;3136;48.788;9.772;2023-07-09T13:55:43;41.60;1.00
6206;DHT22;3136;48.788;9.772;2023-07-09T13:58:13;41.60;1.00
6206;DHT22;3136;48.788;9.772;2023-07-09T14:00:40;41.30;1.00
6206;DHT22;3136;48.788;9.772;2023-07-09T14:03:20;41.40;1.00
6206;DHT22;3136;48.788;9.772;2023-07-09T14:05:46;40.80;1.00
6206;DHT22;3136;48.788;9.772;2023-07-09T14:08:12;40.10;1.00
6206;DHT22;3136;48.788;9.772;2023-07-09T14:10:39;39.30;1.00
6206;DHT22;3136;48.788;9.772;2023-07-09T14:13:04;38.40;1.00
6206;DHT22;3136;48.788;9.772;2023-07-09T14:15:30;37.60;1.00
6206;DHT22;3136;48.788;9.772;2023-07-09T14:17:56;37.00;1.00
6206;DHT22;3136;48.788;9.772;2023-07-09T14:20:22;36.60;1.00
6206;DHT22;3136;48.788;9.772;2023-07-09T14:22:49;36.20;1.00
6206;DHT22;3136;48.788;9.772;2023-07-09T14:25:21;36.10;1.00
6206;DHT22;3136;48.788;9.772;2023-07-09T14:27:49;35.60;1.00
6206;DHT22;3136;48.788;9.772;2023-07-09T14:30:18;36.00;1.00
6206;DHT22;3136;48.788;9.772;2023-07-09T14:32:45;36.00;1.00
6206;DHT22;3136;48.788;9.772;2023-07-09T14:35:12;36.00;1.00
6206;DHT22;3136;48.788;9.772;2023-07-09T14:37:38;35.80;1.00
6206;DHT22;3136;48.788;9.772;2023-07-09T14:40:04;35.60;1.00
6206;DHT22;3136;48.788;9.772;2023-07-09T14:42:30;35.40;1.00
6206;DHT22;3136;48.788;9.772;2023-07-09T14:44:56;35.40;1.00
6206;DHT22;3136;48.788;9.772;2023-07-09T14:47:22;35.20;1.00
6206;DHT22;3136;48.788;9.772;2023-07-09T14:49:48;35.10;1.00
6206;DHT22;3136;48.788;9.772;2023-07-09T14:52:16;35.00;1.00
6206;DHT22;3136;48.788;9.772;2023-07-09T14:54:44;35.00;1.00
6206;DHT22;3136;48.788;9.772;2023-07-09T14:57:25;35.00;1.00
6206;DHT22;3136;48.788;9.772;2023-07-09T14:59:52;34.80;1.00
6206;DHT22;3136;48.788;9.772;2023-07-09T15:02:39;34.70;1.00
6206;DHT22;3136;48.788;9.772;2023-07-09T15:05:15;34.60;1.00
6206;DHT22;3136;48.788;9.772;2023-07-09T15:07:41;34.50;1.00
6206;DHT22;3136;48.788;9.772;2023-07-09T15:10:08;34.40;1.00
6206;DHT22;3136;48.788;9.772;2023-07-09T15:12:35;34.30;1.00
6206;DHT22;3136;48.788;9.772;2023-07-09T15:15:13;34.20;1.00
6206;DHT22;3136;48.788;9.772;2023-07-09T15:17:40;34.20;1.00
6206;DHT22;3136;48.788;9.772;2023-07-09T15:20:12;34.10;1.00
6206;DHT22;3136;48.788;9.772;2023-07-09T15:22:39;34.10;1.00
6206;DHT22;3136;48.788;9.772;2023-07-09T15:25:14;34.10;1.00
6206;DHT22;3136;48.788;9.772;2023-07-09T15:27:41;34.10;1.00
6206;DHT22;3136;48.788;9.772;2023-07-09T15:30:15;34.10;1.00
6206;DHT22;3136;48.788;9.772;2023-07-09T15:32:43;34.10;1.00
6206;DHT22;3136;48.788;9.772;2023-07-09T15:35:09;34.20;1.00
6206;DHT22;3136;48.788;9.772;2023-07-09T15:37:35;34.20;1.00
6206;DHT22;3136;48.788;9.772;2023-07-09T15:40:00;34.20;1.00
6206;DHT22;3136;48.788;9.772;2023-07-09T15:42:26;34.20;1.00
6206;DHT22;3136;48.788;9.772;2023-07-09T15:44:52;34.10;1.00
6206;DHT22;3136;48.788;9.772;2023-07-09T15:47:19;34.10;1.00
6206;DHT22;3136;48.788;9.772;2023-07-09T15:49:46;34.10;1.00
6206;DHT22;3136;48.788;9.772;2023-07-09T15:52:12;34.10;1.00
6206;DHT22;3136;48.788;9.772;2023-07-09T15:54:37;34.20;1.00
6206;DHT22;3136;48.788;9.772;2023-07-09T15:57:04;34.10;1.00
6206;DHT22;3136;48.788;9.772;2023-07-09T15:59:32;34.10;1.00
6206;DHT22;3136;48.788;9.772;2023-07-09T16:01:59;34.00;1.00
6206;DHT22;3136;48.788;9.772;2023-07-09T16:04:26;34.00;1.00
6206;DHT22;3136;48.788;9.772;2023-07-09T16:06:52;34.00;1.00
6206;DHT22;3136;48.788;9.772;2023-07-09T16:09:18;34.00;1.00
6206;DHT22;3136;48.788;9.772;2023-07-09T16:11:47;34.00;1.00
6206;DHT22;3136;48.788;9.772;2023-07-09T16:14:29;33.90;1.00
6206;DHT22;3136;48.788;9.772;2023-07-09T16:16:56;33.80;1.00
6206;DHT22;3136;48.788;9.772;2023-07-09T16:19:24;33.70;1.00
6206;DHT22;3136;48.788;9.772;2023-07-09T16:21:53;33.60;1.00
6206;DHT22;3136;48.788;9.772;2023-07-09T16:24:27;33.50;1.00
6206;DHT22;3136;48.788;9.772;2023-07-09T16:26:59;33.50;1.00
6206;DHT22;3136;48.788;9.772;2023-07-09T16:29:28;33.40;1.00
6206;DHT22;3136;48.788;9.772;2023-07-09T16:31:55;33.40;1.00
6206;DHT22;3136;48.788;9.772;2023-07-09T16:34:25;33.40;1.00
6206;DHT22;3136;48.788;9.772;2023-07-09T16:36:51;33.30;1.00
6206;DHT22;3136;48.788;9.772;2023-07-09T16:41:49;33.50;1.00
6206;DHT22;3136;48.788;9.772;2023-07-09T16:44:17;33.40;1.00
6206;DHT22;3136;48.788;9.772;2023-07-09T16:46:43;33.30;1.00
6206;DHT22;3136;48.788;9.772;2023-07-09T16:51:46;33.50;1.00
6206;DHT22;3136;48.788;9.772;2023-07-09T16:54:12;33.40;1.00
6206;DHT22;3136;48.788;9.772;2023-07-09T16:56:37;33.30;1.00
6206;DHT22;3136;48.788;9.772;2023-07-09T16:59:03;33.30;1.00
6206;DHT22;3136;48.788;9.772;2023-07-09T17:01:28;33.20;1.00
6206;DHT22;3136;48.788;9.772;2023-07-09T17:03:54;33.10;1.00
6206;DHT22;3136;48.788;9.772;2023-07-09T17:06:19;33.00;1.00
6206;DHT22;3136;48.788;9.772;2023-07-09T17:21:19;32.80;1.00
6206;DHT22;3136;48.788;9.772;2023-07-09T17:23:45;32.70;1.00
6206;DHT22;3136;48.788;9.772;2023-07-09T17:26:10;32.60;1.00